sensor_id;sensor_type;location;lat;lon;timestamp;P1;durP1;ratioP1;P2;durP2;ratioP2
5491;SDS011;2768;53.540;10.224;2024-01-25T00:04:05;23.97;;;5.23;;
5491;SDS011;2768;53.540;10.224;2024-01-25T00:09:59;29.60;;;6.70;;
5491;SDS011;2768;53.540;10.224;2024-01-25T00:15:52;30.63;;;6.27;;
5491;SDS011;2768;53.540;10.224;2024-01-25T00:21:47;27.07;;;5.87;;
5491;SDS011;2768;53.540;10.224;2024-01-25T00:27:40;27.83;;;5.27;;
5491;SDS011;2768;53.540;10.224;2024-01-25T00:33:36;22.23;;;5.60;;
5491;SDS011;2768;53.540;10.224;2024-01-25T00:39:31;29.63;;;6.83;;
5491;SDS011;2768;53.540;10.224;2024-01-25T00:45:25;24.07;;;5.90;;
5491;SDS011;2768;53.540;10.224;2024-01-25T00:51:20;27.03;;;5.20;;
5491;SDS011;2768;53.540;10.224;2024-01-25T00:57:16;25.87;;;5.93;;
5491;SDS011;2768;53.540;10.224;2024-01-25T01:03:10;28.13;;;5.80;;
5491;SDS011;2768;53.540;10.224;2024-01-25T01:09:04;26.30;;;5.80;;
5491;SDS011;2768;53.540;10.224;2024-01-25T01:14:59;29.20;;;6.70;;
5491;SDS011;2768;53.540;10.224;2024-01-25T01:20:52;28.83;;;6.20;;
5491;SDS011;2768;53.540;10.224;2024-01-25T01:26:46;34.07;;;7.40;;
5491;SDS011;2768;53.540;10.224;2024-01-25T01:32:42;31.50;;;6.50;;
5491;SDS011;2768;53.540;10.224;2024-01-25T01:38:35;35.73;;;6.87;;
5491;SDS011;2768;53.540;10.224;2024-01-25T01:44:28;26.67;;;6.20;;
5491;SDS011;2768;53.540;10.224;2024-01-25T01:50:23;28.53;;;6.23;;
5491;SDS011;2768;53.540;10.224;2024-01-25T01:56:18;32.40;;;6.23;;
5491;SDS011;2768;53.540;10.224;2024-01-25T02:02:12;30.17;;;6.80;;
5491;SDS011;2768;53.540;10.224;2024-01-25T02:08:07;27.10;;;7.03;;
5491;SDS011;2768;53.540;10.224;2024-01-25T02:14:01;24.00;;;4.90;;
5491;SDS011;2768;53.540;10.224;2024-01-25T02:19:55;27.37;;;6.27;;
5491;SDS011;2768;53.540;10.224;2024-01-25T02:25:50;37.53;;;7.73;;
5491;SDS011;2768;53.540;10.224;2024-01-25T02:31:44;23.60;;;5.40;;
5491;SDS011;2768;53.540;10.224;2024-01-25T02:37:38;34.03;;;6.90;;
5491;SDS011;2768;53.540;10.224;2024-01-25T02:43:33;25.27;;;4.70;;
5491;SDS011;2768;53.540;10.224;2024-01-25T02:49:26;22.50;;;5.53;;
5491;SDS011;2768;53.540;10.224;2024-01-25T02:55:20;29.43;;;5.93;;
5491;SDS011;2768;53.540;10.224;2024-01-25T03:01:15;32.37;;;6.80;;
5491;SDS011;2768;53.540;10.224;2024-01-25T03:07:08;36.40;;;6.73;;
5491;SDS011;2768;53.540;10.224;2024-01-25T03:13:02;27.70;;;6.43;;
5491;SDS011;2768;53.540;10.224;2024-01-25T03:18:57;24.90;;;6.20;;
5491;SDS011;2768;53.540;10.224;2024-01-25T03:24:50;22.83;;;6.00;;
5491;SDS011;2768;53.540;10.224;2024-01-25T03:30:43;24.57;;;4.90;;
5491;SDS011;2768;53.540;10.224;2024-01-25T03:36:38;27.87;;;5.10;;
5491;SDS011;2768;53.540;10.224;2024-01-25T03:42:32;27.83;;;5.23;;
5491;SDS011;2768;53.540;10.224;2024-01-25T03:48:26;40.60;;;6.20;;
5491;SDS011;2768;53.540;10.224;2024-01-25T03:54:20;27.80;;;4.70;;
5491;SDS011;2768;53.540;10.224;2024-01-25T04:00:14;22.60;;;6.83;;
5491;SDS011;2768;53.540;10.224;2024-01-25T04:06:08;27.00;;;5.07;;
5491;SDS011;2768;53.540;10.224;2024-01-25T04:12:03;30.37;;;5.67;;
5491;SDS011;2768;53.540;10.224;2024-01-25T04:17:57;28.20;;;5.77;;
5491;SDS011;2768;53.540;10.224;2024-01-25T04:23:51;43.30;;;7.87;;
5491;SDS011;2768;53.540;10.224;2024-01-25T04:29:45;27.63;;;5.97;;
5491;SDS011;2768;53.540;10.224;2024-01-25T04:35:39;25.87;;;5.47;;
5491;SDS011;2768;53.540;10.224;2024-01-25T04:41:32;25.73;;;4.73;;
5491;SDS011;2768;53.540;10.224;2024-01-25T04:47:27;25.80;;;5.00;;
5491;SDS011;2768;53.540;10.224;2024-01-25T04:53:20;18.70;;;4.90;;
5491;SDS011;2768;53.540;10.224;2024-01-25T04:59:14;31.03;;;5.33;;
5491;SDS011;2768;53.540;10.224;2024-01-25T05:05:08;21.73;;;4.63;;
5491;SDS011;2768;53.540;10.224;2024-01-25T05:11:02;22.70;;;5.80;;
5491;SDS011;2768;53.540;10.224;2024-01-25T05:16:58;24.40;;;3.73;;
5491;SDS011;2768;53.540;10.224;2024-01-25T05:22:52;28.27;;;5.30;;
5491;SDS011;2768;53.540;10.224;2024-01-25T05:28:46;34.83;;;5.70;;
5491;SDS011;2768;53.540;10.224;2024-01-25T05:34:39;19.13;;;4.70;;
5491;SDS011;2768;53.540;10.224;2024-01-25T05:40:34;21.33;;;4.83;;
5491;SDS011;2768;53.540;10.224;2024-01-25T05:46:27;29.90;;;6.77;;
5491;SDS011;2768;53.540;10.224;2024-01-25T05:52:21;32.80;;;6.00;;
5491;SDS011;2768;53.540;10.224;2024-01-25T05:58:17;22.63;;;4.87;;
5491;SDS011;2768;53.540;10.224;2024-01-25T06:04:10;27.57;;;5.90;;
5491;SDS011;2768;53.540;10.224;2024-01-25T06:10:03;22.93;;;5.50;;
5491;SDS011;2768;53.540;10.224;2024-01-25T06:15:59;27.13;;;6.53;;
5491;SDS011;2768;53.540;10.224;2024-01-25T06:21:52;24.63;;;5.93;;
5491;SDS011;2768;53.540;10.224;2024-01-25T06:27:45;27.13;;;5.63;;
5491;SDS011;2768;53.540;10.224;2024-01-25T06:33:40;26.57;;;5.30;;
5491;SDS011;2768;53.540;10.224;2024-01-25T06:39:33;26.77;;;7.93;;
5491;SDS011;2768;53.540;10.224;2024-01-25T06:45:27;26.73;;;3.93;;
5491;SDS011;2768;53.540;10.224;2024-01-25T06:51:21;22.23;;;5.50;;
5491;SDS011;2768;53.540;10.224;2024-01-25T06:57:14;23.40;;;4.80;;
5491;SDS011;2768;53.540;10.224;2024-01-25T07:03:08;27.70;;;4.80;;
5491;SDS011;2768;53.540;10.224;2024-01-25T07:09:03;22.43;;;5.00;;
5491;SDS011;2768;53.540;10.224;2024-01-25T07:14:57;21.07;;;4.33;;
5491;SDS011;2768;53.540;10.224;2024-01-25T07:20:50;23.90;;;5.20;;
5491;SDS011;2768;53.540;10.224;2024-01-25T07:26:45;26.60;;;5.63;;
5491;SDS011;2768;53.540;10.224;2024-01-25T07:32:38;24.10;;;6.53;;
5491;SDS011;2768;53.540;10.224;2024-01-25T07:38:33;23.67;;;5.13;;
5491;SDS011;2768;53.540;10.224;2024-01-25T07:44:28;19.47;;;4.60;;
5491;SDS011;2768;53.540;10.224;2024-01-25T07:50:21;22.50;;;4.73;;
5491;SDS011;2768;53.540;10.224;2024-01-25T07:56:15;22.33;;;4.87;;
5491;SDS011;2768;53.540;10.224;2024-01-25T08:02:09;31.33;;;5.93;;
5491;SDS011;2768;53.540;10.224;2024-01-25T08:08:03;31.03;;;6.00;;
5491;SDS011;2768;53.540;10.224;2024-01-25T08:13:56;24.97;;;5.47;;
5491;SDS011;2768;53.540;10.224;2024-01-25T08:19:51;30.27;;;5.50;;
5491;SDS011;2768;53.540;10.224;2024-01-25T08:25:45;26.40;;;6.03;;
5491;SDS011;2768;53.540;10.224;2024-01-25T08:31:38;21.33;;;4.83;;
5491;SDS011;2768;53.540;10.224;2024-01-25T08:37:33;26.23;;;5.10;;
5491;SDS011;2768;53.540;10.224;2024-01-25T08:43:28;21.07;;;5.03;;
5491;SDS011;2768;53.540;10.224;2024-01-25T08:49:21;28.73;;;6.30;;
5491;SDS011;2768;53.540;10.224;2024-01-25T08:55:16;31.50;;;4.90;;
5491;SDS011;2768;53.540;10.224;2024-01-25T09:01:10;14.50;;;3.90;;
5491;SDS011;2768;53.540;10.224;2024-01-25T09:07:04;30.70;;;6.57;;
5491;SDS011;2768;53.540;10.224;2024-01-25T09:12:59;25.20;;;4.57;;
5491;SDS011;2768;53.540;10.224;2024-01-25T09:18:52;26.53;;;4.63;;
5491;SDS011;2768;53.540;10.224;2024-01-25T09:24:46;33.87;;;5.10;;
5491;SDS011;2768;53.540;10.224;2024-01-25T09:30:41;16.83;;;4.77;;
5491;SDS011;2768;53.540;10.224;2024-01-25T09:36:34;21.93;;;4.10;;
5491;SDS011;2768;53.540;10.224;2024-01-25T09:42:27;22.10;;;4.27;;
5491;SDS011;2768;53.540;10.224;2024-01-25T09:48:22;26.33;;;4.83;;
5491;SDS011;2768;53.540;10.224;2024-01-25T09:54:16;25.27;;;5.23;;
5491;SDS011;2768;53.540;10.224;2024-01-25T10:00:10;29.23;;;4.97;;
5491;SDS011;2768;53.540;10.224;2024-01-25T10:06:06;24.60;;;5.40;;
5491;SDS011;2768;53.540;10.224;2024-01-25T10:12:00;16.70;;;4.03;;
5491;SDS011;2768;53.540;10.224;2024-01-25T10:18:08;28.13;;;7.40;;
5491;SDS011;2768;53.540;10.224;2024-01-25T10:24:22;21.00;;;5.80;;
5491;SDS011;2768;53.540;10.224;2024-01-25T10:30:15;31.43;;;5.60;;
5491;SDS011;2768;53.540;10.224;2024-01-25T10:36:09;15.37;;;4.50;;
5491;SDS011;2768;53.540;10.224;2024-01-25T10:42:06;22.90;;;4.33;;
5491;SDS011;2768;53.540;10.224;2024-01-25T10:48:00;22.00;;;5.43;;
5491;SDS011;2768;53.540;10.224;2024-01-25T10:53:53;21.43;;;4.53;;
5491;SDS011;2768;53.540;10.224;2024-01-25T10:59:48;19.20;;;4.70;;
5491;SDS011;2768;53.540;10.224;2024-01-25T11:05:42;21.43;;;5.07;;
5491;SDS011;2768;53.540;10.224;2024-01-25T11:11:36;24.63;;;5.30;;
5491;SDS011;2768;53.540;10.224;2024-01-25T11:17:31;14.13;;;3.30;;
5491;SDS011;2768;53.540;10.224;2024-01-25T11:23:31;16.20;;;4.03;;
5491;SDS011;2768;53.540;10.224;2024-01-25T11:29:24;19.63;;;4.70;;
5491;SDS011;2768;53.540;10.224;2024-01-25T11:35:20;21.63;;;3.80;;
5491;SDS011;2768;53.540;10.224;2024-01-25T11:41:17;19.53;;;5.90;;
5491;SDS011;2768;53.540;10.224;2024-01-25T11:47:11;19.03;;;4.03;;
5491;SDS011;2768;53.540;10.224;2024-01-25T11:53:06;20.23;;;4.90;;
5491;SDS011;2768;53.540;10.224;2024-01-25T11:59:00;20.93;;;3.83;;
5491;SDS011;2768;53.540;10.224;2024-01-25T12:04:56;30.43;;;5.67;;
5491;SDS011;2768;53.540;10.224;2024-01-25T12:11:01;19.83;;;4.40;;
5491;SDS011;2768;53.540;10.224;2024-01-25T12:16:55;29.70;;;6.37;;
5491;SDS011;2768;53.540;10.224;2024-01-25T12:22:49;21.27;;;4.13;;
5491;SDS011;2768;53.540;10.224;2024-01-25T12:28:44;28.10;;;6.50;;
5491;SDS011;2768;53.540;10.224;2024-01-25T12:34:39;18.83;;;4.40;;
5491;SDS011;2768;53.540;10.224;2024-01-25T12:40:36;17.73;;;4.00;;
5491;SDS011;2768;53.540;10.224;2024-01-25T12:46:31;18.17;;;4.33;;
5491;SDS011;2768;53.540;10.224;2024-01-25T12:52:24;21.60;;;4.50;;
5491;SDS011;2768;53.540;10.224;2024-01-25T12:58:17;13.70;;;3.40;;
5491;SDS011;2768;53.540;10.224;2024-01-25T13:04:12;18.23;;;3.93;;
5491;SDS011;2768;53.540;10.224;2024-01-25T13:10:07;18.50;;;3.50;;
5491;SDS011;2768;53.540;10.224;2024-01-25T13:16:03;15.43;;;4.07;;
5491;SDS011;2768;53.540;10.224;2024-01-25T13:21:58;11.50;;;3.03;;
5491;SDS011;2768;53.540;10.224;2024-01-25T13:27:51;17.73;;;3.07;;
5491;SDS011;2768;53.540;10.224;2024-01-25T13:33:45;18.67;;;5.50;;
5491;SDS011;2768;53.540;10.224;2024-01-25T13:39:40;17.07;;;4.03;;
5491;SDS011;2768;53.540;10.224;2024-01-25T13:45:34;18.77;;;3.80;;
5491;SDS011;2768;53.540;10.224;2024-01-25T13:51:27;15.10;;;4.90;;
5491;SDS011;2768;53.540;10.224;2024-01-25T13:57:22;12.73;;;3.23;;
5491;SDS011;2768;53.540;10.224;2024-01-25T14:03:16;15.43;;;3.20;;
5491;SDS011;2768;53.540;10.224;2024-01-25T14:09:10;13.93;;;3.50;;
5491;SDS011;2768;53.540;10.224;2024-01-25T14:15:05;13.43;;;3.57;;
5491;SDS011;2768;53.540;10.224;2024-01-25T14:20:59;23.20;;;3.50;;
5491;SDS011;2768;53.540;10.224;2024-01-25T14:26:53;18.03;;;4.20;;
5491;SDS011;2768;53.540;10.224;2024-01-25T14:32:47;15.47;;;3.77;;
5491;SDS011;2768;53.540;10.224;2024-01-25T14:38:42;21.40;;;4.50;;
5491;SDS011;2768;53.540;10.224;2024-01-25T14:44:36;25.23;;;5.33;;
5491;SDS011;2768;53.540;10.224;2024-01-25T14:50:30;23.20;;;4.40;;
5491;SDS011;2768;53.540;10.224;2024-01-25T14:56:24;15.53;;;3.97;;
5491;SDS011;2768;53.540;10.224;2024-01-25T15:02:17;14.23;;;3.90;;
5491;SDS011;2768;53.540;10.224;2024-01-25T15:08:12;19.40;;;4.00;;
5491;SDS011;2768;53.540;10.224;2024-01-25T15:14:05;15.17;;;4.13;;
5491;SDS011;2768;53.540;10.224;2024-01-25T15:19:58;14.37;;;3.80;;
5491;SDS011;2768;53.540;10.224;2024-01-25T15:25:54;12.80;;;3.03;;
5491;SDS011;2768;53.540;10.224;2024-01-25T15:31:47;13.67;;;3.60;;
5491;SDS011;2768;53.540;10.224;2024-01-25T15:37:40;12.50;;;2.90;;
5491;SDS011;2768;53.540;10.224;2024-01-25T15:43:35;11.17;;;3.50;;
5491;SDS011;2768;53.540;10.224;2024-01-25T15:49:28;12.23;;;2.97;;
5491;SDS011;2768;53.540;10.224;2024-01-25T15:55:22;15.33;;;4.70;;
5491;SDS011;2768;53.540;10.224;2024-01-25T16:01:17;18.07;;;4.70;;
5491;SDS011;2768;53.540;10.224;2024-01-25T16:07:11;13.10;;;4.70;;
5491;SDS011;2768;53.540;10.224;2024-01-25T16:13:04;13.23;;;3.60;;
5491;SDS011;2768;53.540;10.224;2024-01-25T16:18:58;13.13;;;4.00;;
5491;SDS011;2768;53.540;10.224;2024-01-25T16:24:56;14.40;;;4.60;;
5491;SDS011;2768;53.540;10.224;2024-01-25T16:30:49;15.10;;;4.30;;
5491;SDS011;2768;53.540;10.224;2024-01-25T16:36:43;14.20;;;4.23;;
5491;SDS011;2768;53.540;10.224;2024-01-25T16:42:37;15.10;;;4.50;;
5491;SDS011;2768;53.540;10.224;2024-01-25T16:48:30;18.57;;;4.80;;
5491;SDS011;2768;53.540;10.224;2024-01-25T16:54:26;19.23;;;4.70;;
5491;SDS011;2768;53.540;10.224;2024-01-25T17:00:19;17.40;;;4.50;;
5491;SDS011;2768;53.540;10.224;2024-01-25T17:06:16;19.20;;;5.03;;
5491;SDS011;2768;53.540;10.224;2024-01-25T17:12:11;18.13;;;4.53;;
5491;SDS011;2768;53.540;10.224;2024-01-25T17:18:06;16.67;;;4.63;;
5491;SDS011;2768;53.540;10.224;2024-01-25T17:24:00;16.07;;;4.30;;
5491;SDS011;2768;53.540;10.224;2024-01-25T17:29:55;15.87;;;3.40;;
5491;SDS011;2768;53.540;10.224;2024-01-25T17:35:48;18.90;;;4.83;;
5491;SDS011;2768;53.540;10.224;2024-01-25T17:41:42;13.90;;;3.97;;
5491;SDS011;2768;53.540;10.224;2024-01-25T17:47:36;17.20;;;4.30;;
5491;SDS011;2768;53.540;10.224;2024-01-25T17:53:30;23.30;;;5.43;;
5491;SDS011;2768;53.540;10.224;2024-01-25T17:59:23;16.27;;;4.30;;
5491;SDS011;2768;53.540;10.224;2024-01-25T18:05:19;18.57;;;4.97;;
5491;SDS011;2768;53.540;10.224;2024-01-25T18:11:12;17.83;;;4.10;;
5491;SDS011;2768;53.540;10.224;2024-01-25T18:17:07;17.10;;;4.60;;
5491;SDS011;2768;53.540;10.224;2024-01-25T18:23:04;20.77;;;4.73;;
5491;SDS011;2768;53.540;10.224;2024-01-25T18:28:57;20.57;;;5.00;;
5491;SDS011;2768;53.540;10.224;2024-01-25T18:34:51;14.50;;;4.63;;
5491;SDS011;2768;53.540;10.224;2024-01-25T18:40:46;17.17;;;5.20;;
5491;SDS011;2768;53.540;10.224;2024-01-25T18:46:39;20.27;;;4.90;;
5491;SDS011;2768;53.540;10.224;2024-01-25T18:52:33;17.63;;;4.10;;
5491;SDS011;2768;53.540;10.224;2024-01-25T18:58:28;17.77;;;5.27;;
5491;SDS011;2768;53.540;10.224;2024-01-25T19:04:22;18.70;;;5.53;;
5491;SDS011;2768;53.540;10.224;2024-01-25T19:10:16;14.97;;;4.90;;
5491;SDS011;2768;53.540;10.224;2024-01-25T19:16:10;14.90;;;4.10;;
5491;SDS011;2768;53.540;10.224;2024-01-25T19:22:04;18.73;;;5.27;;
5491;SDS011;2768;53.540;10.224;2024-01-25T19:27:59;22.33;;;5.03;;
5491;SDS011;2768;53.540;10.224;2024-01-25T19:33:53;17.07;;;5.40;;
5491;SDS011;2768;53.540;10.224;2024-01-25T19:39:47;22.80;;;6.27;;
5491;SDS011;2768;53.540;10.224;2024-01-25T19:45:40;17.70;;;5.67;;
5491;SDS011;2768;53.540;10.224;2024-01-25T19:51:35;26.00;;;5.50;;
5491;SDS011;2768;53.540;10.224;2024-01-25T19:57:28;17.80;;;6.00;;
5491;SDS011;2768;53.540;10.224;2024-01-25T20:03:22;20.90;;;6.67;;
5491;SDS011;2768;53.540;10.224;2024-01-25T20:09:18;20.17;;;6.17;;
5491;SDS011;2768;53.540;10.224;2024-01-25T20:15:11;18.50;;;6.20;;
5491;SDS011;2768;53.540;10.224;2024-01-25T20:21:11;21.57;;;7.53;;
5491;SDS011;2768;53.540;10.224;2024-01-25T20:27:06;19.70;;;6.03;;
5491;SDS011;2768;53.540;10.224;2024-01-25T20:33:00;19.93;;;7.33;;
5491;SDS011;2768;53.540;10.224;2024-01-25T20:38:55;16.20;;;6.00;;
5491;SDS011;2768;53.540;10.224;2024-01-25T20:44:50;22.53;;;6.33;;
5491;SDS011;2768;53.540;10.224;2024-01-25T20:50:43;25.90;;;6.77;;
5491;SDS011;2768;53.540;10.224;2024-01-25T20:56:37;25.57;;;6.20;;
5491;SDS011;2768;53.540;10.224;2024-01-25T21:02:32;22.83;;;6.63;;
5491;SDS011;2768;53.540;10.224;2024-01-25T21:08:25;29.00;;;6.67;;
5491;SDS011;2768;53.540;10.224;2024-01-25T21:14:19;35.17;;;16.03;;
5491;SDS011;2768;53.540;10.224;2024-01-25T21:20:16;29.93;;;12.20;;
5491;SDS011;2768;53.540;10.224;2024-01-25T21:26:09;22.57;;;6.90;;
5491;SDS011;2768;53.540;10.224;2024-01-25T21:32:02;21.80;;;6.70;;
5491;SDS011;2768;53.540;10.224;2024-01-25T21:37:57;17.97;;;7.30;;
5491;SDS011;2768;53.540;10.224;2024-01-25T21:43:50;22.30;;;8.47;;
5491;SDS011;2768;53.540;10.224;2024-01-25T21:49:44;25.13;;;7.63;;
5491;SDS011;2768;53.540;10.224;2024-01-25T21:55:40;24.27;;;7.63;;
5491;SDS011;2768;53.540;10.224;2024-01-25T22:01:33;26.30;;;8.53;;
5491;SDS011;2768;53.540;10.224;2024-01-25T22:07:29;35.93;;;9.67;;
5491;SDS011;2768;53.540;10.224;2024-01-25T22:13:23;21.50;;;7.80;;
5491;SDS011;2768;53.540;10.224;2024-01-25T22:19:20;21.40;;;7.87;;
5491;SDS011;2768;53.540;10.224;2024-01-25T22:25:13;23.30;;;7.87;;
5491;SDS011;2768;53.540;10.224;2024-01-25T22:31:08;25.80;;;7.80;;
5491;SDS011;2768;53.540;10.224;2024-01-25T22:37:02;28.00;;;8.70;;
5491;SDS011;2768;53.540;10.224;2024-01-25T22:42:57;22.80;;;7.00;;
5491;SDS011;2768;53.540;10.224;2024-01-25T22:48:51;19.17;;;7.00;;
5491;SDS011;2768;53.540;10.224;2024-01-25T22:54:45;18.43;;;8.00;;
5491;SDS011;2768;53.540;10.224;2024-01-25T23:00:38;21.40;;;6.90;;
5491;SDS011;2768;53.540;10.224;2024-01-25T23:06:34;24.00;;;7.90;;
5491;SDS011;2768;53.540;10.224;2024-01-25T23:12:27;25.63;;;6.50;;
5491;SDS011;2768;53.540;10.224;2024-01-25T23:18:20;26.33;;;6.33;;
5491;SDS011;2768;53.540;10.224;2024-01-25T23:24:15;24.83;;;8.40;;
5491;SDS011;2768;53.540;10.224;2024-01-25T23:30:09;22.60;;;7.40;;
5491;SDS011;2768;53.540;10.224;2024-01-25T23:36:02;24.47;;;6.80;;
5491;SDS011;2768;53.540;10.224;2024-01-25T23:41:58;21.90;;;6.40;;
5491;SDS011;2768;53.540;10.224;2024-01-25T23:47:51;29.73;;;7.47;;
5491;SDS011;2768;53.540;10.224;2024-01-25T23:53:45;22.43;;;6.20;;
5491;SDS011;2768;53.540;10.224;2024-01-25T23:59:39;26.27;;;7.30;;
